Time;durP1;ratioP1;P1;durP2;ratioP2;P2;SDS_P1;SDS_P2;PMS_P1;PMS_P2;Temp;Humidity;BMP_temperature;BMP_pressure;BME280_temperature;BME280_humidity;BME280_pressure;Samples;Min_cycle;Max_cycle;Signal;HPM_P1;HPM_P2
2023/07/07 00:02:23;;;;;;;4.10;3.70;;;;;;;17.41;99.91;96783.09;5041683;28;20207;-60
2023/07/07 00:04:50;;;;;;;4.53;3.92;;;;;;;17.39;100.00;96786.97;5042747;28;20222;-59
2023/07/07 00:07:16;;;;;;;5.00;4.00;;;;;;;17.38;100.00;96791.50;5042047;28;20215;-58
2023/07/07 00:09:42;;;;;;;4.07;3.58;;;;;;;17.36;100.00;96784.63;5058620;28;20223;-59
2023/07/07 00:12:10;;;;;;;3.95;3.60;;;;;;;17.37;100.00;96787.16;5065497;28;21181;-60
2023/07/07 00:14:37;;;;;;;3.50;3.20;;;;;;;17.31;100.00;96782.53;5057113;28;20196;-59
2023/07/07 00:17:05;;;;;;;4.30;3.78;;;;;;;17.26;99.64;96779.56;5042101;28;20650;-58
2023/07/07 00:19:33;;;;;;;3.85;3.50;;;;;;;17.24;100.00;96786.94;5041954;28;20207;-58
2023/07/07 00:22:00;;;;;;;4.20;3.80;;;;;;;17.25;99.55;96788.56;5041454;28;20195;-60
2023/07/07 00:24:27;;;;;;;3.70;3.33;;;;;;;17.15;100.00;96798.69;5042906;28;20542;-59
2023/07/07 00:26:53;;;;;;;4.72;3.75;;;;;;;17.09;100.00;96799.44;5041022;28;20207;-60
2023/07/07 00:29:20;;;;;;;5.90;3.53;;;;;;;17.11;100.00;96794.72;5042048;28;20235;-61
2023/07/07 00:31:46;;;;;;;3.97;3.58;;;;;;;17.15;100.00;96797.84;5041376;28;20550;-59
2023/07/07 00:34:14;;;;;;;4.13;3.72;;;;;;;17.10;100.00;96795.75;5041685;28;20195;-59
2023/07/07 00:36:41;;;;;;;4.20;3.67;;;;;;;16.96;100.00;96801.88;5042396;28;20207;-58
2023/07/07 00:39:07;;;;;;;6.45;3.35;;;;;;;17.00;100.00;96799.69;5042219;28;20265;-60
2023/07/07 00:41:33;;;;;;;4.20;3.80;;;;;;;16.96;100.00;96803.72;5042714;28;20203;-60
2023/07/07 00:44:02;;;;;;;4.32;3.70;;;;;;;16.99;100.00;96809.53;5041452;28;20211;-59
2023/07/07 00:46:29;;;;;;;3.78;3.47;;;;;;;17.00;100.00;96807.69;5044599;28;20258;-59
2023/07/07 00:48:59;;;;;;;4.10;3.50;;;;;;;16.87;100.00;96806.44;5045991;28;20229;-61
2023/07/07 00:51:31;;;;;;;4.32;3.80;;;;;;;16.90;100.00;96806.06;5045645;28;20228;-60
2023/07/07 00:53:58;;;;;;;4.78;3.72;;;;;;;16.80;100.00;96794.81;5045365;28;20207;-61
2023/07/07 00:56:30;;;;;;;4.03;3.63;;;;;;;16.78;100.00;96796.84;5045750;28;20204;-59
2023/07/07 00:59:00;;;;;;;4.18;3.70;;;;;;;16.79;100.00;96809.16;5044915;28;20200;-59
2023/07/07 01:01:26;;;;;;;3.90;3.50;;;;;;;16.78;100.00;96807.50;5046073;28;20211;-59
2023/07/07 01:03:55;;;;;;;4.28;3.53;;;;;;;16.77;100.00;96813.03;5044746;28;20616;-58
2023/07/07 01:06:24;;;;;;;5.20;3.95;;;;;;;16.77;100.00;96815.69;5045396;28;20330;-58
2023/07/07 01:08:58;;;;;;;4.18;3.78;;;;;;;16.65;100.00;96822.47;5046081;28;20236;-59
2023/07/07 01:11:25;;;;;;;3.78;3.47;;;;;;;16.68;100.00;96816.75;5045244;28;20206;-58
2023/07/07 01:13:52;;;;;;;4.07;3.55;;;;;;;16.67;100.00;96813.25;5045414;28;20242;-60
2023/07/07 01:16:24;;;;;;;5.05;3.72;;;;;;;16.64;100.00;96816.28;5053806;28;20211;-61
2023/07/07 01:18:57;;;;;;;3.83;3.50;;;;;;;16.66;100.00;96814.25;5061828;28;20244;-60
2023/07/07 01:21:29;;;;;;;5.20;3.97;;;;;;;16.65;100.00;96807.25;5056365;28;20198;-60
2023/07/07 01:24:25;;;;;;;4.18;3.78;;;;;;;16.62;100.00;96820.13;5046511;28;20620;-59
2023/07/07 01:27:13;;;;;;;4.07;3.58;;;;;;;16.58;100.00;96818.84;5040688;28;20200;-60
2023/07/07 01:30:03;;;;;;;5.03;3.72;;;;;;;16.52;100.00;96816.81;5046063;28;20219;-59
2023/07/07 01:32:33;;;;;;;3.85;3.55;;;;;;;16.43;100.00;96814.22;5044754;28;20203;-59
2023/07/07 01:35:07;;;;;;;4.55;4.13;;;;;;;16.48;100.00;96819.00;5045146;28;20254;-59
2023/07/07 01:37:34;;;;;;;4.60;4.00;;;;;;;16.42;100.00;96817.03;5045297;28;20202;-59
2023/07/07 01:40:02;;;;;;;4.32;4.03;;;;;;;16.42;100.00;96817.03;5045889;28;20212;-59
2023/07/07 01:42:32;;;;;;;4.93;4.15;;;;;;;16.39;100.00;96818.22;5044320;28;20200;-59
2023/07/07 01:45:07;;;;;;;4.55;3.70;;;;;;;16.35;100.00;96808.91;5044801;28;20552;-59
2023/07/07 01:47:37;;;;;;;5.45;4.00;;;;;;;16.30;100.00;96808.59;5044597;28;20199;-59
2023/07/07 01:50:06;;;;;;;5.50;3.88;;;;;;;16.35;100.00;96811.56;5045061;28;20277;-60
2023/07/07 01:52:36;;;;;;;6.10;4.28;;;;;;;16.31;100.00;96809.41;5044611;28;20209;-60
2023/07/07 01:55:12;;;;;;;5.00;3.92;;;;;;;16.38;100.00;96805.03;5045120;28;20211;-59
2023/07/07 01:57:39;;;;;;;4.38;3.97;;;;;;;16.32;100.00;96821.78;5044377;28;20192;-59
2023/07/07 02:00:07;;;;;;;5.82;4.05;;;;;;;16.26;100.00;96819.81;5045224;28;20210;-60
2023/07/07 02:02:35;;;;;;;4.20;3.85;;;;;;;16.22;100.00;96815.81;5044250;28;20234;-59
2023/07/07 02:05:01;;;;;;;4.85;4.07;;;;;;;16.23;100.00;96817.44;5044818;28;20203;-60
2023/07/07 02:07:28;;;;;;;4.82;4.32;;;;;;;16.24;100.00;96819.97;5044392;28;20204;-60
2023/07/07 02:09:54;;;;;;;6.22;4.32;;;;;;;16.25;100.00;96823.47;5044928;28;20560;-60
2023/07/07 02:12:21;;;;;;;5.00;4.20;;;;;;;16.20;100.00;96823.16;5044582;28;20199;-60
2023/07/07 02:14:47;;;;;;;6.10;4.63;;;;;;;16.24;100.00;96821.78;5044031;28;20227;-61
2023/07/07 02:17:15;;;;;;;4.15;3.85;;;;;;;16.20;100.00;96818.66;5043889;28;20290;-60
2023/07/07 02:19:45;;;;;;;5.75;4.20;;;;;;;16.22;100.00;96818.47;5044192;28;20652;-59
2023/07/07 02:22:12;;;;;;;5.65;3.97;;;;;;;16.13;100.00;96824.84;5042882;28;20648;-59
2023/07/07 02:24:40;;;;;;;4.57;4.17;;;;;;;16.17;100.00;96818.16;5044748;28;20208;-58
2023/07/07 02:27:08;;;;;;;4.75;4.18;;;;;;;16.16;100.00;96828.00;5043817;28;20203;-60
2023/07/07 02:29:35;;;;;;;5.43;4.07;;;;;;;16.18;100.00;96831.34;5044352;28;20668;-59
2023/07/07 02:32:04;;;;;;;4.15;3.75;;;;;;;16.10;100.00;96831.38;5044213;28;20207;-60
2023/07/07 02:34:31;;;;;;;4.10;3.80;;;;;;;16.01;100.00;96831.56;5043874;28;20210;-59
2023/07/07 02:37:00;;;;;;;4.35;3.85;;;;;;;16.01;100.00;96840.41;5043951;28;20200;-59
2023/07/07 02:39:27;;;;;;;4.28;3.88;;;;;;;15.96;100.00;96836.56;5044220;28;20208;-60
2023/07/07 02:41:53;;;;;;;4.20;3.80;;;;;;;15.95;100.00;96833.06;5043175;28;20215;-60
2023/07/07 02:44:20;;;;;;;4.70;4.10;;;;;;;15.96;100.00;96834.75;5043147;28;20208;-60
2023/07/07 02:46:46;;;;;;;4.97;3.88;;;;;;;15.93;100.00;96835.09;5044053;28;20242;-60
2023/07/07 02:49:13;;;;;;;4.43;4.05;;;;;;;15.81;100.00;96834.63;5042909;28;20648;-58
2023/07/07 02:51:39;;;;;;;5.70;3.30;;;;;;;15.78;100.00;96840.31;5043524;28;20219;-60
2023/07/07 02:54:07;;;;;;;4.32;3.55;;;;;;;15.79;100.00;96839.31;5043975;28;20234;-60
2023/07/07 02:56:34;;;;;;;4.43;3.72;;;;;;;15.78;100.00;96834.97;5044058;28;20203;-59
2023/07/07 02:59:01;;;;;;;4.00;3.70;;;;;;;15.76;100.00;96836.97;5042591;28;20320;-60
2023/07/07 03:01:28;;;;;;;4.63;3.73;;;;;;;15.70;100.00;96834.97;5043749;28;20257;-60
2023/07/07 03:03:56;;;;;;;4.57;3.80;;;;;;;15.71;100.00;96833.16;5043697;28;20242;-59
2023/07/07 03:06:23;;;;;;;4.47;3.50;;;;;;;15.67;100.00;96832.66;5043243;28;20207;-59
2023/07/07 03:08:50;;;;;;;4.35;3.95;;;;;;;15.69;100.00;96825.34;5043587;28;20195;-60
2023/07/07 03:11:20;;;;;;;4.97;3.58;;;;;;;15.70;100.00;96829.66;5043886;28;20285;-60
2023/07/07 03:13:48;;;;;;;4.20;3.72;;;;;;;15.71;100.00;96833.97;5043086;28;20212;-59
2023/07/07 03:16:20;;;;;;;5.60;4.20;;;;;;;15.64;100.00;96834.81;5043699;28;20261;-60
2023/07/07 03:18:47;;;;;;;3.73;3.43;;;;;;;15.59;100.00;96840.66;5043496;28;20298;-60
2023/07/07 03:21:14;;;;;;;4.45;4.00;;;;;;;15.63;100.00;96842.00;5044786;28;20207;-60
2023/07/07 03:23:40;;;;;;;3.67;3.38;;;;;;;15.62;100.00;96840.34;5045179;28;20226;-61
2023/07/07 03:26:07;;;;;;;4.40;4.00;;;;;;;15.60;100.00;96847.66;5048034;28;20199;-61
2023/07/07 03:28:35;;;;;;;3.90;3.60;;;;;;;15.63;100.00;96849.97;5046712;28;20643;-60
2023/07/07 03:31:08;;;;;;;4.00;3.70;;;;;;;15.56;100.00;96850.81;5049721;28;20215;-60
2023/07/07 03:33:35;;;;;;;3.80;3.50;;;;;;;15.54;100.00;96843.03;5053836;28;20196;-60
2023/07/07 03:36:01;;;;;;;6.70;3.53;;;;;;;15.53;100.00;96844.00;5053271;28;20223;-60
2023/07/07 03:38:27;;;;;;;4.15;3.85;;;;;;;15.55;100.00;96847.34;5053840;28;20195;-60
2023/07/07 03:40:54;;;;;;;4.50;3.70;;;;;;;15.55;100.00;96850.03;5060594;28;20632;-59
2023/07/07 03:43:20;;;;;;;3.70;3.40;;;;;;;15.51;100.00;96854.03;5064615;28;20237;-61
2023/07/07 03:45:50;;;;;;;4.67;3.70;;;;;;;15.55;100.00;96849.19;5042677;28;20242;-59
2023/07/07 03:48:17;;;;;;;4.25;3.83;;;;;;;15.51;100.00;96848.69;5041594;28;20206;-59
2023/07/07 03:50:43;;;;;;;4.07;3.72;;;;;;;15.56;100.00;96854.34;5043100;28;20219;-61
2023/07/07 03:53:11;;;;;;;4.30;3.45;;;;;;;15.56;100.00;96851.66;5043329;28;20210;-58
2023/07/07 03:55:37;;;;;;;4.23;3.77;;;;;;;15.53;100.00;96841.34;5043323;28;20210;-59
2023/07/07 03:58:04;;;;;;;3.70;3.40;;;;;;;15.50;100.00;96844.34;5063647;28;20246;-61
2023/07/07 04:00:30;;;;;;;5.38;4.50;;;;;;;15.52;100.00;96845.00;5068255;28;20191;-60
2023/07/07 04:02:58;;;;;;;3.90;3.60;;;;;;;15.56;100.00;96841.00;5053882;28;20227;-59
2023/07/07 04:05:24;;;;;;;5.32;3.83;;;;;;;15.58;100.00;96855.00;5042105;28;20215;-59
2023/07/07 04:07:53;;;;;;;5.40;4.03;;;;;;;15.57;100.00;96852.50;5042369;28;20268;-60
2023/07/07 04:10:21;;;;;;;5.83;3.77;;;;;;;15.61;100.00;96851.16;5043038;28;20235;-60
2023/07/07 04:12:47;;;;;;;5.70;3.70;;;;;;;15.66;100.00;96856.84;5042413;28;20203;-60
2023/07/07 04:15:14;;;;;;;4.87;3.80;;;;;;;15.65;100.00;96855.16;5042739;28;20211;-59
2023/07/07 04:17:40;;;;;;;4.03;3.72;;;;;;;15.66;100.00;96852.31;5041505;28;20211;-60
2023/07/07 04:20:09;;;;;;;4.07;3.67;;;;;;;15.69;100.00;96851.16;5041304;28;20619;-60
2023/07/07 04:22:35;;;;;;;4.80;4.28;;;;;;;15.71;100.00;96855.31;5041698;28;20585;-60
2023/07/07 04:25:10;;;;;;;4.22;3.83;;;;;;;15.75;100.00;96851.31;5042503;28;20210;-61
2023/07/07 04:27:37;;;;;;;4.53;4.13;;;;;;;15.75;100.00;96845.97;5041281;28;20205;-60
2023/07/07 04:30:04;;;;;;;4.07;3.77;;;;;;;15.83;100.00;96859.31;5041558;28;20667;-60
2023/07/07 04:32:32;;;;;;;5.85;3.58;;;;;;;15.86;100.00;96856.28;5041621;28;20702;-60
2023/07/07 04:34:59;;;;;;;7.23;4.20;;;;;;;15.92;100.00;96863.59;5042445;28;20258;-60
2023/07/07 04:37:27;;;;;;;4.97;4.18;;;;;;;15.98;100.00;96862.06;5040075;28;20521;-59
2023/07/07 04:39:53;;;;;;;5.10;4.60;;;;;;;16.02;100.00;96867.91;5041876;28;20214;-60
2023/07/07 04:42:20;;;;;;;5.43;4.10;;;;;;;16.10;100.00;96879.38;5042010;28;20204;-59
2023/07/07 04:44:46;;;;;;;6.63;4.20;;;;;;;16.17;100.00;96872.34;5040994;28;20211;-59
2023/07/07 04:47:13;;;;;;;4.78;3.97;;;;;;;16.28;100.00;96882.66;5041354;28;20214;-61
2023/07/07 04:49:39;;;;;;;5.85;4.28;;;;;;;16.42;100.00;96875.75;5041762;28;20207;-61
2023/07/07 04:52:07;;;;;;;4.57;4.20;;;;;;;16.55;100.00;96875.19;5040861;28;20212;-60
2023/07/07 04:54:37;;;;;;;4.47;4.07;;;;;;;16.70;100.00;96884.16;5041572;28;20514;-60
2023/07/07 04:57:04;;;;;;;7.30;4.90;;;;;;;16.76;100.00;96884.28;5042081;28;20637;-59
2023/07/07 04:59:31;;;;;;;6.32;4.35;;;;;;;16.81;100.00;96881.94;5041272;28;20286;-59
2023/07/07 05:01:58;;;;;;;5.20;4.70;;;;;;;16.92;100.00;96891.41;5041431;28;20294;-59
2023/07/07 05:04:27;;;;;;;5.00;4.47;;;;;;;16.98;100.00;96881.81;5041159;28;20227;-60
2023/07/07 05:06:53;;;;;;;5.15;4.57;;;;;;;17.06;100.00;96890.63;5041094;28;20315;-59
2023/07/07 05:09:20;;;;;;;6.47;4.90;;;;;;;17.16;100.00;96887.72;5041431;28;20218;-61
2023/07/07 05:11:48;;;;;;;5.03;4.43;;;;;;;17.22;100.00;96895.03;5041694;28;20219;-61
2023/07/07 05:14:14;;;;;;;6.07;4.60;;;;;;;17.35;100.00;96896.13;5040485;28;20196;-60
2023/07/07 05:16:40;;;;;;;5.57;4.78;;;;;;;17.49;100.00;96902.50;5041160;28;20212;-60
2023/07/07 05:19:07;;;;;;;5.57;4.65;;;;;;;17.63;100.00;96899.09;5042062;28;20207;-58
2023/07/07 05:21:34;;;;;;;5.07;4.57;;;;;;;17.78;100.00;96902.59;5040457;28;20563;-61
2023/07/07 05:24:01;;;;;;;5.95;4.78;;;;;;;17.92;100.00;96909.03;5041207;28;20200;-60
2023/07/07 05:26:28;;;;;;;5.57;4.90;;;;;;;18.09;100.00;96899.81;5041375;28;20207;-60
2023/07/07 05:29:00;;;;;;;7.15;5.65;;;;;;;18.23;100.00;96907.03;5040381;28;20212;-60
2023/07/07 05:31:27;;;;;;;8.50;5.57;;;;;;;18.37;100.00;96913.38;5042613;28;20672;-60
2023/07/07 05:33:53;;;;;;;6.05;5.47;;;;;;;18.50;100.00;96916.22;5044633;28;20215;-60
2023/07/07 05:36:20;;;;;;;4.93;4.53;;;;;;;18.64;100.00;96918.09;5044686;28;20208;-61
2023/07/07 05:38:46;;;;;;;5.82;5.32;;;;;;;18.78;100.00;96913.72;5044472;28;20206;-61
2023/07/07 05:41:13;;;;;;;7.45;4.68;;;;;;;18.95;100.00;96909.00;5047735;28;20211;-60
2023/07/07 05:43:39;;;;;;;6.65;5.20;;;;;;;19.11;100.00;96903.41;5046915;28;20215;-60
2023/07/07 05:46:08;;;;;;;6.25;5.05;;;;;;;19.24;100.00;96912.41;5046407;28;20210;-61
2023/07/07 05:48:35;;;;;;;6.25;4.80;;;;;;;19.30;99.34;96908.16;5044241;28;20608;-60
2023/07/07 05:51:05;;;;;;;7.85;5.43;;;;;;;19.39;96.56;96909.69;5044717;28;20888;-59
2023/07/07 05:53:31;;;;;;;7.03;5.18;;;;;;;19.56;96.52;96913.78;5044562;28;20629;-60
2023/07/07 05:56:03;;;;;;;6.55;5.18;;;;;;;19.70;96.47;96912.06;5045275;28;20230;-63
2023/07/07 05:58:30;;;;;;;5.72;4.82;;;;;;;19.86;95.78;96915.31;5044314;28;20351;-59
2023/07/07 06:00:57;;;;;;;6.18;5.28;;;;;;;19.97;95.05;96913.13;5047901;28;20203;-60
2023/07/07 06:03:24;;;;;;;6.22;5.22;;;;;;;20.12;93.95;96905.81;5048641;28;20231;-60
2023/07/07 06:05:51;;;;;;;9.60;4.90;;;;;;;20.28;92.30;96905.50;5047109;28;20215;-58
2023/07/07 06:08:17;;;;;;;9.32;5.45;;;;;;;20.41;92.21;96913.66;5045790;28;20219;-60
2023/07/07 06:10:48;;;;;;;5.75;4.68;;;;;;;20.59;91.03;96908.59;5046891;28;20231;-59
2023/07/07 06:13:17;;;;;;;6.80;4.70;;;;;;;20.81;89.67;96902.09;5045748;28;20491;-60
2023/07/07 06:15:43;;;;;;;5.47;4.60;;;;;;;21.00;87.65;96905.03;5045558;28;20207;-60
2023/07/07 06:18:10;;;;;;;5.38;4.88;;;;;;;21.13;86.36;96907.81;5045583;28;20211;-61
2023/07/07 06:20:38;;;;;;;6.13;4.50;;;;;;;21.33;85.47;96909.50;5045627;28;20207;-60
2023/07/07 06:23:05;;;;;;;6.38;4.70;;;;;;;21.51;83.31;96908.09;5045240;28;20206;-60
2023/07/07 06:25:31;;;;;;;5.80;4.50;;;;;;;21.69;83.19;96909.16;5044805;28;20231;-60
2023/07/07 06:27:58;;;;;;;5.68;4.70;;;;;;;21.82;81.70;96895.69;5043911;28;20288;-59
2023/07/07 06:30:25;;;;;;;5.70;4.68;;;;;;;22.01;80.23;96904.00;5043419;28;20200;-61
2023/07/07 06:32:51;;;;;;;5.18;4.68;;;;;;;22.23;79.35;96897.34;5044079;28;20206;-60
2023/07/07 06:35:18;;;;;;;5.35;4.50;;;;;;;22.40;76.58;96905.81;5043737;28;20210;-63
2023/07/07 06:37:45;;;;;;;4.80;4.38;;;;;;;22.51;73.99;96903.31;5043480;28;20211;-62
2023/07/07 06:40:14;;;;;;;6.50;4.85;;;;;;;22.73;72.87;96909.28;5045093;28;20203;-60
2023/07/07 06:42:40;;;;;;;5.25;4.68;;;;;;;22.97;72.59;96907.75;5042433;28;20908;-61
2023/07/07 06:45:08;;;;;;;7.90;4.85;;;;;;;23.13;71.30;96909.97;5044775;28;20214;-60
2023/07/07 06:47:34;;;;;;;4.85;4.38;;;;;;;23.32;71.10;96911.72;5042787;28;20298;-61
2023/07/07 06:50:01;;;;;;;10.68;4.82;;;;;;;23.38;68.86;96923.53;5045500;28;20207;-61
2023/07/07 06:52:27;;;;;;;6.05;4.50;;;;;;;23.50;68.81;96911.84;5050801;28;20760;-60
2023/07/07 06:54:56;;;;;;;6.85;5.43;;;;;;;23.49;65.41;96914.78;5054388;28;20210;-62
2023/07/07 06:57:25;;;;;;;6.78;4.70;;;;;;;23.67;66.08;96921.06;5056910;28;20264;-60
2023/07/07 06:59:53;;;;;;;6.10;4.05;;;;;;;23.83;65.80;96916.19;5049601;28;20231;-62
2023/07/07 07:02:20;;;;;;;5.53;3.83;;;;;;;23.90;65.13;96916.97;5048417;28;20211;-63
2023/07/07 07:04:46;;;;;;;5.18;4.18;;;;;;;24.06;62.82;96919.09;5049595;28;20208;-61
2023/07/07 07:07:13;;;;;;;5.22;4.00;;;;;;;24.25;62.85;96920.84;5050793;28;20223;-63
2023/07/07 07:09:39;;;;;;;7.65;4.47;;;;;;;24.23;63.21;96918.38;5046183;28;20217;-62
2023/07/07 07:12:10;;;;;;;6.15;4.80;;;;;;;24.48;62.27;96922.94;5049706;28;20238;-62
2023/07/07 07:14:36;;;;;;;6.35;4.88;;;;;;;24.61;62.39;96920.91;5048762;28;20206;-60
2023/07/07 07:17:03;;;;;;;7.22;5.00;;;;;;;24.72;61.38;96931.00;5043212;28;20644;-62
2023/07/07 07:19:29;;;;;;;4.75;4.35;;;;;;;24.73;60.42;96929.91;5042235;28;20207;-61
2023/07/07 07:21:56;;;;;;;6.60;4.55;;;;;;;24.98;61.35;96926.34;5042221;28;20215;-63
2023/07/07 07:24:23;;;;;;;6.32;4.53;;;;;;;24.94;60.06;96920.56;5043087;28;20568;-60
2023/07/07 07:26:50;;;;;;;8.77;4.28;;;;;;;25.30;59.64;96925.09;5046381;28;20208;-61
2023/07/07 07:29:17;;;;;;;6.82;3.70;;;;;;;25.35;58.20;96919.84;5056555;28;20519;-62
2023/07/07 07:31:44;;;;;;;6.03;4.20;;;;;;;25.52;58.14;96923.59;5051709;28;20234;-60
2023/07/07 07:34:23;;;;;;;6.53;4.10;;;;;;;25.56;57.33;96924.78;5043262;28;20269;-60
2023/07/07 07:36:50;;;;;;;6.43;4.38;;;;;;;25.68;56.77;96922.91;5043465;28;20239;-61
2023/07/07 07:39:19;;;;;;;6.00;4.20;;;;;;;25.90;56.96;96914.28;5042480;28;20219;-61
2023/07/07 07:41:48;;;;;;;4.45;4.05;;;;;;;26.00;55.69;96923.50;5044356;28;20214;-61
2023/07/07 07:44:15;;;;;;;7.35;4.18;;;;;;;26.16;55.81;96916.53;5046240;28;20204;-60
2023/07/07 07:46:43;;;;;;;7.00;4.70;;;;;;;26.35;56.62;96912.69;5051852;28;20207;-61
2023/07/07 07:49:10;;;;;;;6.03;4.45;;;;;;;26.54;55.36;96913.38;5052585;28;20211;-61
2023/07/07 07:51:38;;;;;;;5.15;3.95;;;;;;;26.47;53.20;96910.78;5041978;28;20231;-61
2023/07/07 07:54:05;;;;;;;5.75;4.25;;;;;;;26.67;55.14;96908.56;5042248;28;20230;-61
2023/07/07 07:56:31;;;;;;;6.25;3.70;;;;;;;26.82;54.00;96913.50;5042115;28;20262;-60
2023/07/07 07:59:00;;;;;;;3.85;3.53;;;;;;;26.94;53.73;96918.91;5042560;28;20206;-61
2023/07/07 08:01:28;;;;;;;4.15;3.75;;;;;;;26.70;49.72;96916.22;5042653;28;20203;-61
2023/07/07 08:03:56;;;;;;;4.10;3.50;;;;;;;26.94;49.78;96921.63;5048960;28;20308;-62
2023/07/07 08:06:23;;;;;;;4.00;3.60;;;;;;;27.24;50.13;96911.41;5051357;28;20210;-60
2023/07/07 08:08:50;;;;;;;4.25;3.60;;;;;;;27.38;51.00;96917.38;5043465;28;20207;-62
2023/07/07 08:11:18;;;;;;;5.38;3.63;;;;;;;27.51;51.39;96911.66;5043711;28;20230;-60
2023/07/07 08:13:45;;;;;;;4.38;3.38;;;;;;;27.61;50.05;96914.56;5043193;28;20212;-60
2023/07/07 08:16:13;;;;;;;5.25;3.22;;;;;;;27.47;49.32;96903.19;5042906;28;20203;-60
2023/07/07 08:18:40;;;;;;;3.95;3.63;;;;;;;27.55;50.32;96908.22;5042924;28;20210;-61
2023/07/07 08:21:08;;;;;;;3.97;3.55;;;;;;;27.49;49.93;96911.91;5045250;28;20211;-59
2023/07/07 08:23:35;;;;;;;4.95;3.95;;;;;;;27.58;49.89;96909.63;5048006;28;20556;-60
2023/07/07 08:26:01;;;;;;;7.00;3.58;;;;;;;27.80;50.39;96915.19;5049951;28;20206;-60
2023/07/07 08:28:28;;;;;;;5.28;4.05;;;;;;;27.98;50.87;96898.66;5049021;28;20211;-60
2023/07/07 08:30:54;;;;;;;5.88;3.72;;;;;;;28.01;49.54;96898.16;5043426;28;20207;-62
2023/07/07 08:33:21;;;;;;;4.85;3.92;;;;;;;28.26;48.92;96903.22;5043602;28;20226;-60
2023/07/07 08:35:47;;;;;;;6.78;3.88;;;;;;;28.22;49.38;96913.75;5042173;28;20516;-61
2023/07/07 08:38:15;;;;;;;4.13;3.72;;;;;;;27.99;47.26;96913.88;5041924;28;20623;-60
2023/07/07 08:40:47;;;;;;;6.72;3.80;;;;;;;27.99;47.54;96911.16;5042358;28;20215;-61
2023/07/07 08:43:13;;;;;;;3.97;3.58;;;;;;;28.21;47.13;96906.66;5042383;28;20195;-60
2023/07/07 08:45:44;;;;;;;5.63;4.10;;;;;;;28.35;48.67;96907.97;5042058;28;20203;-61
2023/07/07 08:48:17;;;;;;;4.82;3.92;;;;;;;28.26;46.32;96911.38;5041962;28;20215;-60
2023/07/07 08:50:48;;;;;;;5.15;3.53;;;;;;;28.13;47.11;96910.63;5042457;28;20194;-60
2023/07/07 08:53:40;;;;;;;4.95;4.00;;;;;;;28.13;46.42;96901.63;5042725;28;20233;-61
2023/07/07 08:56:16;;;;;;;5.90;3.70;;;;;;;28.35;48.38;96910.69;5043603;28;20655;-61
2023/07/07 08:58:52;;;;;;;6.60;4.20;;;;;;;28.51;48.49;96904.44;5042858;28;20199;-62
2023/07/07 09:01:34;;;;;;;6.47;4.15;;;;;;;28.61;47.39;96909.19;5044118;28;20329;-60
2023/07/07 09:04:10;;;;;;;4.65;4.25;;;;;;;28.73;46.71;96898.22;5041042;28;20251;-61
2023/07/07 09:06:56;;;;;;;3.90;3.60;;;;;;;28.94;46.18;96905.59;5043487;28;20191;-60
2023/07/07 09:09:33;;;;;;;4.25;3.67;;;;;;;28.97;46.59;96905.09;5045583;28;20199;-61
2023/07/07 09:12:11;;;;;;;4.28;3.88;;;;;;;28.87;45.42;96900.34;5047702;28;20252;-60
2023/07/07 09:14:38;;;;;;;4.60;3.95;;;;;;;29.26;46.50;96903.84;5045884;28;20206;-61
2023/07/07 09:17:09;;;;;;;3.88;3.53;;;;;;;29.07;43.57;96883.41;5047915;28;20279;-60
2023/07/07 09:19:38;;;;;;;4.80;4.32;;;;;;;29.16;44.62;96887.31;5046285;28;20612;-59
2023/07/07 09:22:09;;;;;;;5.45;4.22;;;;;;;29.34;45.59;96884.31;5046912;28;20297;-60
2023/07/07 09:24:42;;;;;;;5.05;3.80;;;;;;;29.28;44.61;96879.88;5046145;28;20208;-60
2023/07/07 09:27:13;;;;;;;5.18;4.22;;;;;;;29.51;43.70;96879.56;5046963;28;20605;-60
2023/07/07 09:29:41;;;;;;;3.75;3.45;;;;;;;29.69;44.56;96877.59;5044597;28;20654;-60
2023/07/07 09:32:10;;;;;;;4.30;3.88;;;;;;;29.46;42.77;96870.53;5045521;28;20250;-58
2023/07/07 09:34:37;;;;;;;4.40;4.00;;;;;;;29.52;44.07;96869.50;5045540;28;20203;-58
2023/07/07 09:37:09;;;;;;;4.45;3.80;;;;;;;29.69;43.95;96867.47;5045358;28;20517;-59
2023/07/07 09:39:45;;;;;;;6.45;4.03;;;;;;;29.52;45.08;96864.88;5046551;28;20245;-58
2023/07/07 09:42:21;;;;;;;7.20;4.00;;;;;;;29.77;42.74;96874.38;5045122;28;20188;-59
2023/07/07 09:45:09;;;;;;;4.25;3.85;;;;;;;29.88;41.81;96870.69;5045656;28;20202;-60
2023/07/07 09:47:41;;;;;;;5.88;3.75;;;;;;;29.76;41.12;96870.03;5045428;28;20195;-58
2023/07/07 09:50:13;;;;;;;4.15;3.70;;;;;;;30.02;42.50;96874.63;5045105;28;20199;-59
2023/07/07 09:52:45;;;;;;;7.25;4.20;;;;;;;30.27;42.03;96872.09;5045778;28;20613;-60
2023/07/07 09:55:18;;;;;;;8.00;4.35;;;;;;;30.29;42.22;96880.84;5046431;28;20268;-58
2023/07/07 09:57:50;;;;;;;4.93;3.75;;;;;;;30.39;41.30;96869.19;5044815;28;20210;-58
2023/07/07 10:00:18;;;;;;;4.50;4.05;;;;;;;30.23;40.07;96868.25;5045555;28;20622;-58
2023/07/07 10:02:45;;;;;;;4.65;3.90;;;;;;;30.42;39.87;96869.50;5058636;28;20227;-59
2023/07/07 10:05:14;;;;;;;5.80;3.97;;;;;;;30.67;40.82;96868.84;5064996;28;20199;-58
2023/07/07 10:07:41;;;;;;;4.05;3.65;;;;;;;30.64;39.71;96865.81;5069009;28;20195;-59
2023/07/07 10:10:13;;;;;;;4.45;3.63;;;;;;;30.74;41.13;96865.88;5047660;28;20207;-58
2023/07/07 10:12:42;;;;;;;4.03;3.72;;;;;;;30.66;40.91;96860.91;5044133;28;20660;-58
2023/07/07 10:15:47;;;;;;;5.82;3.67;;;;;;;30.78;41.88;96862.34;5046106;28;20230;-59
2023/07/07 10:18:17;;;;;;;5.47;4.00;;;;;;;30.48;39.08;96854.81;5043845;28;20282;-58
2023/07/07 10:20:44;;;;;;;6.68;3.83;;;;;;;30.57;40.02;96853.22;5044820;28;20203;-58
2023/07/07 10:23:12;;;;;;;4.80;3.85;;;;;;;30.77;39.96;96855.25;5044773;28;20216;-59
2023/07/07 10:25:41;;;;;;;4.70;3.90;;;;;;;30.97;39.79;96846.31;5045960;28;20215;-59
2023/07/07 10:28:17;;;;;;;4.30;3.85;;;;;;;31.02;40.56;96851.81;5043884;28;20212;-59
2023/07/07 10:30:46;;;;;;;4.35;4.03;;;;;;;31.11;41.08;96855.66;5044103;28;20199;-59
2023/07/07 10:33:15;;;;;;;5.88;4.40;;;;;;;31.09;39.26;96855.13;5044145;28;20686;-58
2023/07/07 10:35:43;;;;;;;4.93;3.85;;;;;;;31.24;39.65;96848.91;5044445;28;20199;-59
2023/07/07 10:38:11;;;;;;;5.07;4.38;;;;;;;31.09;36.45;96855.97;5043981;28;20208;-58
2023/07/07 10:40:38;;;;;;;6.63;4.07;;;;;;;31.24;36.10;96860.66;5044357;28;20214;-58
2023/07/07 10:43:07;;;;;;;4.75;4.07;;;;;;;31.40;37.05;96848.66;5043695;28;20199;-58
2023/07/07 10:45:35;;;;;;;5.60;3.83;;;;;;;31.33;37.24;96847.25;5044673;28;20208;-58
2023/07/07 10:48:02;;;;;;;4.53;4.07;;;;;;;31.43;39.02;96837.19;5043912;28;20203;-59
2023/07/07 10:50:34;;;;;;;5.65;4.53;;;;;;;31.44;37.27;96847.03;5044472;28;20196;-57
2023/07/07 10:53:10;;;;;;;6.15;4.00;;;;;;;31.55;38.74;96843.25;5044620;28;20299;-58
2023/07/07 10:55:57;;;;;;;5.43;4.57;;;;;;;31.36;37.55;96842.09;5045464;28;20199;-59
2023/07/07 10:58:31;;;;;;;8.32;4.50;;;;;;;31.31;37.35;96836.63;5043864;28;20241;-58
2023/07/07 11:01:03;;;;;;;5.75;4.20;;;;;;;31.22;36.73;96838.22;5044768;28;20207;-59
2023/07/07 11:03:49;;;;;;;4.35;3.95;;;;;;;31.46;37.85;96830.38;5043036;28;20274;-60
2023/07/07 11:06:25;;;;;;;5.72;4.53;;;;;;;31.49;38.08;96830.66;5043625;28;20192;-59
2023/07/07 11:08:58;;;;;;;8.07;4.25;;;;;;;31.55;37.90;96826.84;5042952;28;20199;-59
2023/07/07 11:11:30;;;;;;;6.25;5.03;;;;;;;31.54;37.95;96825.19;5044785;28;20218;-60
2023/07/07 11:14:12;;;;;;;8.75;4.95;;;;;;;31.45;38.94;96829.53;5043283;28;20521;-58
2023/07/07 11:16:47;;;;;;;6.95;4.47;;;;;;;31.72;38.43;96823.03;5044276;28;20207;-58
2023/07/07 11:19:26;;;;;;;5.25;4.13;;;;;;;31.69;36.80;96820.84;5044731;28;20202;-58
2023/07/07 11:22:01;;;;;;;8.55;4.68;;;;;;;31.87;37.49;96817.56;5043485;28;20325;-59
2023/07/07 11:24:32;;;;;;;5.60;4.68;;;;;;;31.61;35.38;96815.91;5043605;28;20206;-58
2023/07/07 11:27:25;;;;;;;6.38;4.07;;;;;;;31.75;35.91;96809.63;5044694;28;20199;-58
2023/07/07 11:29:57;;;;;;;4.95;3.97;;;;;;;31.64;35.17;96818.91;5043931;28;20659;-58
2023/07/07 11:32:30;;;;;;;6.28;4.15;;;;;;;31.73;35.00;96814.56;5042972;28;20215;-60
2023/07/07 11:35:12;;;;;;;4.75;4.35;;;;;;;31.87;35.70;96812.09;5043856;28;20208;-58
2023/07/07 11:37:48;;;;;;;5.45;4.10;;;;;;;31.96;34.96;96813.16;5043644;28;20199;-58
2023/07/07 11:40:40;;;;;;;6.28;3.90;;;;;;;32.06;36.05;96808.53;5043664;28;20328;-58